KMEI Airport (Key Field) Information

FAA: MEI - ICAO: KMEI

KMEI Airport Location

State Mississippi
County Lauderdale
City Meridian
KMEI Airport is 3 miles southwest of Meridian, MS.
Latitude 32-19-57.4000N
Longitude 088-45-06.7000W
Elevation 298ft

KMEI Airport METARs

METAR KMEI 181258Z 00000KT 10SM CLR M02/M04 A3021 RMK AO2 SLP233 I1017 T10171039
Altimeter 30.21"
Temperature -1.7°C (28.9°F)
Wind 0° at 0KT
Clouds Skies are clear.
Visibility 10.0mi
Time observed: 2022-01-18T12:58:00Z

KMEI Airport Details

Status Operational
Activation April 1940
Ownership Public
Usage Public
Chart MEMPHIS
ATC on-site Yes
Beacon schedule sunset-sunrise
Beacon color clear green

KMEI Airport Contacts

Owner MERIDIAN ARPT AUTH
Owner address 2811A AIRPORT BLVD, MERIDIAN, MS 39307
Owner phone 601-482-0364
Manager PAUL J. MC GEHEE
Manager address 4044B HWY 567 N, LIBERTY, MS 39645-5300
Manager phone (601) 657-0065

KMEI Airport (Key Field) Radio Frequencies

KMEI (Airport) Radio Frequencies

UNICOM 122.95
Common traffic advisory frequency (CTAF) 133.975